createdAt,value
2023-07-25T00:01:44.094Z,51.30
2023-07-25T00:04:10.945Z,52.00
2023-07-25T00:06:37.686Z,52.00
2023-07-25T00:09:05.760Z,51.50
2023-07-25T00:11:32.768Z,51.80
2023-07-25T00:13:59.880Z,51.90
2023-07-25T00:16:26.850Z,52.30
2023-07-25T00:18:53.636Z,52.80
2023-07-25T00:21:20.462Z,52.10
2023-07-25T00:23:47.221Z,52.40
2023-07-25T00:26:15.337Z,52.70
2023-07-25T00:28:42.183Z,52.60
2023-07-25T00:31:09.310Z,52.70
2023-07-25T00:33:36.016Z,52.70
2023-07-25T00:36:02.985Z,52.50
2023-07-25T00:38:29.772Z,52.30
2023-07-25T00:40:56.511Z,53.50
2023-07-25T00:43:24.588Z,53.00
2023-07-25T00:45:51.750Z,53.20
2023-07-25T00:48:18.560Z,53.20
2023-07-25T00:50:45.368Z,53.20
2023-07-25T00:53:14.031Z,53.00
2023-07-25T00:55:41.094Z,53.00
2023-07-25T00:58:07.978Z,53.00
2023-07-25T01:00:37.889Z,52.60
2023-07-25T01:03:05.030Z,54.10
2023-07-25T01:05:35.758Z,53.60
2023-07-25T01:08:02.883Z,53.90
2023-07-25T01:10:29.616Z,54.00
2023-07-25T01:12:56.348Z,54.10
2023-07-25T01:15:23.213Z,54.50
2023-07-25T01:17:51.967Z,55.00
2023-07-25T01:20:19.274Z,55.90
2023-07-25T01:22:47.264Z,55.40
2023-07-25T01:25:15.372Z,55.70
2023-07-25T01:27:42.402Z,56.40
2023-07-25T01:30:09.961Z,55.80
2023-07-25T01:32:36.912Z,55.90
2023-07-25T01:35:04.234Z,56.00
2023-07-25T01:37:30.991Z,56.10
2023-07-25T01:39:57.731Z,55.90
2023-07-25T01:42:25.814Z,55.70
2023-07-25T01:44:52.612Z,55.90
2023-07-25T01:47:19.338Z,56.30
2023-07-25T01:49:46.093Z,56.00
2023-07-25T01:52:12.906Z,55.70
2023-07-25T01:54:39.699Z,55.00
2023-07-25T01:57:07.165Z,55.00
2023-07-25T01:59:35.340Z,54.10
2023-07-25T02:02:02.218Z,54.30
2023-07-25T02:04:29.021Z,54.20
2023-07-25T02:06:55.791Z,54.30
2023-07-25T02:09:22.542Z,54.40
2023-07-25T02:11:49.368Z,54.00
2023-07-25T02:14:16.291Z,54.80
2023-07-25T02:16:44.582Z,55.20
2023-07-25T02:19:11.436Z,54.60
2023-07-25T02:21:38.208Z,55.00
2023-07-25T02:24:05.444Z,54.80
2023-07-25T02:26:32.243Z,54.60
2023-07-25T02:28:59.024Z,54.80
2023-07-25T02:31:25.836Z,54.80
2023-07-25T02:33:54.742Z,54.50
2023-07-25T02:36:21.521Z,55.50
2023-07-25T02:38:48.263Z,55.30
2023-07-25T02:41:15.008Z,55.00
2023-07-25T02:43:41.719Z,54.60
2023-07-25T02:46:08.534Z,54.60
2023-07-25T02:48:35.326Z,54.70
2023-07-25T02:51:03.529Z,54.30
2023-07-25T02:53:30.303Z,54.20
2023-07-25T02:55:57.030Z,53.80
2023-07-25T02:58:23.870Z,53.00
2023-07-25T03:00:51.158Z,52.50
2023-07-25T03:03:18.003Z,52.20
2023-07-25T03:05:44.880Z,51.60
2023-07-25T03:08:12.996Z,52.20
2023-07-25T03:10:40.125Z,52.80
2023-07-25T03:13:06.888Z,52.70
2023-07-25T03:15:33.596Z,52.80
2023-07-25T03:18:00.382Z,52.80
2023-07-25T03:20:27.280Z,52.20
2023-07-25T03:22:54.086Z,52.60
2023-07-25T03:25:22.241Z,52.20
2023-07-25T03:27:49.024Z,52.50
2023-07-25T03:30:15.833Z,52.30
2023-07-25T03:32:42.619Z,52.30
2023-07-25T03:35:09.522Z,52.30
2023-07-25T03:37:36.258Z,51.50
2023-07-25T03:40:03.121Z,51.60
2023-07-25T03:42:31.211Z,52.10
2023-07-25T03:44:57.965Z,52.50
2023-07-25T03:47:24.831Z,51.60
2023-07-25T03:49:51.655Z,51.30
2023-07-25T03:52:18.417Z,51.30
2023-07-25T03:54:45.145Z,50.60
2023-07-25T03:57:11.940Z,50.50
2023-07-25T03:59:40.041Z,50.50
2023-07-25T04:02:06.892Z,50.70
2023-07-25T04:04:33.697Z,50.50
2023-07-25T04:07:00.557Z,50.40
2023-07-25T04:09:27.390Z,50.40
2023-07-25T04:11:54.140Z,50.60
2023-07-25T04:14:20.887Z,50.80
2023-07-25T04:16:48.946Z,51.10
2023-07-25T04:19:16.263Z,51.90
2023-07-25T04:21:43.086Z,52.20
2023-07-25T04:24:09.852Z,52.50
2023-07-25T04:26:36.644Z,52.50
2023-07-25T04:29:03.443Z,52.10
2023-07-25T04:31:30.603Z,50.80
2023-07-25T04:33:58.992Z,50.10
2023-07-25T04:36:25.822Z,50.60
2023-07-25T04:38:52.590Z,51.20
2023-07-25T04:41:19.333Z,51.10
2023-07-25T04:43:46.058Z,51.60
2023-07-25T04:46:12.844Z,50.90
2023-07-25T04:48:39.758Z,51.40
2023-07-25T04:51:07.855Z,51.40
2023-07-25T04:53:35.181Z,51.60
2023-07-25T04:56:01.928Z,51.60
2023-07-25T04:58:29.190Z,51.40
2023-07-25T05:00:55.934Z,51.60
2023-07-25T05:03:22.802Z,51.00
2023-07-25T05:05:51.992Z,51.50
2023-07-25T05:08:20.106Z,51.10
2023-07-25T05:10:46.840Z,51.80
2023-07-25T05:13:13.657Z,51.40
2023-07-25T05:15:40.473Z,51.60
2023-07-25T05:18:07.231Z,51.40
2023-07-25T05:20:34.013Z,51.10
2023-07-25T05:23:00.870Z,51.20
2023-07-25T05:25:28.928Z,51.20
2023-07-25T05:27:55.739Z,51.60
2023-07-25T05:30:22.493Z,51.80
2023-07-25T05:32:49.593Z,52.40
2023-07-25T05:35:16.882Z,52.40
2023-07-25T05:37:43.683Z,51.90
2023-07-25T05:40:10.638Z,51.70
2023-07-25T05:42:38.732Z,52.40
2023-07-25T05:45:06.768Z,52.70
2023-07-25T05:47:33.502Z,53.50
2023-07-25T05:50:00.313Z,52.80
2023-07-25T05:52:27.073Z,52.40
2023-07-25T05:54:53.811Z,52.40
2023-07-25T05:57:20.630Z,52.00
2023-07-25T05:59:48.738Z,51.90
2023-07-25T06:02:15.896Z,52.40
2023-07-25T06:04:42.613Z,52.70
2023-07-25T06:07:09.434Z,52.20
2023-07-25T06:09:36.238Z,52.20
2023-07-25T06:12:03.112Z,52.40
2023-07-25T06:14:29.921Z,51.80
2023-07-25T06:16:58.048Z,52.60
2023-07-25T06:19:24.778Z,51.90
2023-07-25T06:21:51.647Z,52.00
2023-07-25T06:24:19.934Z,52.50
2023-07-25T06:26:46.898Z,51.20
2023-07-25T06:29:13.625Z,52.10
2023-07-25T06:31:40.493Z,52.20
2023-07-25T06:34:08.577Z,52.00
2023-07-25T06:36:35.350Z,52.20
2023-07-25T06:39:02.116Z,52.90
2023-07-25T06:41:29.031Z,52.80
2023-07-25T06:43:55.952Z,52.70
2023-07-25T06:46:22.754Z,52.20
2023-07-25T06:48:49.508Z,51.60
2023-07-25T06:51:17.731Z,51.60
2023-07-25T06:53:44.469Z,51.80
2023-07-25T06:56:11.202Z,51.90
2023-07-25T06:58:37.947Z,51.40
2023-07-25T07:01:04.720Z,51.80
2023-07-25T07:03:31.908Z,52.00
2023-07-25T07:05:58.776Z,51.70
2023-07-25T07:08:26.984Z,51.00
2023-07-25T07:10:54.196Z,50.60
2023-07-25T07:13:21.071Z,50.30
2023-07-25T07:15:48.498Z,50.40
2023-07-25T07:18:15.491Z,50.00
2023-07-25T07:20:46.363Z,49.60
2023-07-25T07:23:13.126Z,48.30
2023-07-25T07:25:41.299Z,48.20
2023-07-25T07:28:08.176Z,48.30
2023-07-25T07:30:35.074Z,48.50
2023-07-25T07:33:01.935Z,48.50
2023-07-25T07:35:28.716Z,48.20
2023-07-25T07:37:55.442Z,47.90
2023-07-25T07:40:22.219Z,47.40
2023-07-25T07:42:50.333Z,47.20
2023-07-25T07:45:17.188Z,46.90
2023-07-25T07:47:43.977Z,47.10
2023-07-25T07:50:10.961Z,45.70
2023-07-25T07:52:42.483Z,45.60
2023-07-25T07:55:11.350Z,45.50
2023-07-25T07:57:42.719Z,45.30
2023-07-25T08:00:13.154Z,46.20
2023-07-25T08:02:40.276Z,46.70
2023-07-25T08:05:07.918Z,45.70
2023-07-25T08:07:34.833Z,45.40
2023-07-25T08:10:01.727Z,46.20
2023-07-25T08:12:28.637Z,46.30
2023-07-25T08:14:55.414Z,46.20
2023-07-25T08:17:23.568Z,46.30
2023-07-25T08:19:50.378Z,45.80
2023-07-25T08:22:17.411Z,45.60
2023-07-25T08:24:44.218Z,44.90
2023-07-25T08:27:11.078Z,45.10
2023-07-25T08:29:40.062Z,45.60
2023-07-25T08:32:08.296Z,45.60
2023-07-25T08:34:36.467Z,45.40
2023-07-25T08:37:03.676Z,45.40
2023-07-25T08:39:30.419Z,44.80
2023-07-25T08:41:59.105Z,45.10
2023-07-25T08:44:27.661Z,44.20
2023-07-25T08:46:55.988Z,44.30
2023-07-25T08:49:24.456Z,44.40
2023-07-25T08:51:53.967Z,44.50
2023-07-25T08:54:27.959Z,44.80
2023-07-25T08:56:55.334Z,44.30
2023-07-25T08:59:23.298Z,43.70
2023-07-25T09:01:50.521Z,43.30
2023-07-25T09:04:17.933Z,43.60
2023-07-25T09:06:44.701Z,43.60
2023-07-25T09:09:12.973Z,43.90
2023-07-25T09:11:39.753Z,43.80
2023-07-25T09:14:06.471Z,43.70
2023-07-25T09:16:33.895Z,43.30
2023-07-25T09:19:01.061Z,43.60
2023-07-25T09:21:28.530Z,43.70
2023-07-25T09:23:56.648Z,43.50
2023-07-25T09:26:26.894Z,43.20
2023-07-25T09:28:56.608Z,42.80
2023-07-25T09:31:27.172Z,42.50
2023-07-25T09:33:55.605Z,43.10
2023-07-25T09:36:24.092Z,43.00
2023-07-25T09:38:51.756Z,43.40
2023-07-25T09:41:19.524Z,43.60
2023-07-25T09:43:47.678Z,43.60
2023-07-25T09:46:14.541Z,43.60
2023-07-25T09:48:44.207Z,43.70
2023-07-25T09:51:11.784Z,43.50
2023-07-25T09:53:38.792Z,43.40
2023-07-25T09:56:06.597Z,43.20
2023-07-25T09:58:34.203Z,43.30
2023-07-25T10:01:03.565Z,43.80
2023-07-25T10:03:30.492Z,44.10
2023-07-25T10:05:57.917Z,43.80
2023-07-25T10:08:26.263Z,43.90
2023-07-25T10:10:54.677Z,43.90
2023-07-25T10:13:21.620Z,43.60
2023-07-25T10:15:49.260Z,42.80
2023-07-25T10:18:22.663Z,42.80
2023-07-25T10:20:49.758Z,42.80
2023-07-25T10:23:16.858Z,43.20
2023-07-25T10:25:43.857Z,43.20
2023-07-25T10:28:12.079Z,43.50
2023-07-25T10:30:43.870Z,43.60
2023-07-25T10:33:13.550Z,43.90
2023-07-25T10:35:46.291Z,43.70
2023-07-25T10:38:15.246Z,43.70
2023-07-25T10:40:53.452Z,44.00
2023-07-25T10:43:21.088Z,43.70
2023-07-25T10:45:52.996Z,43.80
2023-07-25T10:48:35.737Z,44.00
2023-07-25T10:51:05.534Z,43.80
2023-07-25T10:53:32.301Z,43.30
2023-07-25T10:56:15.857Z,44.10
2023-07-25T10:59:08.578Z,44.50
2023-07-25T11:01:38.463Z,43.70
2023-07-25T11:04:21.917Z,43.60
2023-07-25T11:06:50.906Z,42.90
2023-07-25T11:09:17.924Z,41.40
2023-07-25T11:11:45.435Z,41.50
2023-07-25T11:14:13.801Z,41.50
2023-07-25T11:16:41.775Z,42.10
2023-07-25T11:19:09.665Z,41.60
2023-07-25T11:21:38.362Z,40.90
2023-07-25T11:24:09.353Z,42.20
2023-07-25T11:26:36.555Z,41.30
2023-07-25T11:29:04.703Z,41.40
2023-07-25T11:31:31.853Z,40.70
2023-07-25T11:34:08.219Z,41.00
2023-07-25T11:36:37.056Z,40.80
2023-07-25T11:39:04.009Z,40.60
2023-07-25T11:41:32.685Z,40.70
2023-07-25T11:43:59.627Z,40.40
2023-07-25T11:46:27.440Z,40.00
2023-07-25T11:48:55.017Z,39.50
2023-07-25T11:51:22.208Z,40.10
2023-07-25T11:53:49.093Z,39.60
2023-07-25T11:56:16.012Z,37.90
2023-07-25T11:58:48.875Z,37.50
2023-07-25T12:01:15.672Z,36.50
2023-07-25T12:03:47.109Z,39.00
2023-07-25T12:06:14.010Z,38.00
2023-07-25T12:08:42.894Z,38.20
2023-07-25T12:11:11.769Z,37.90
2023-07-25T12:13:46.625Z,37.00
2023-07-25T12:16:30.670Z,38.00
2023-07-25T12:18:59.480Z,38.50
2023-07-25T12:21:28.451Z,39.00
2023-07-25T12:23:57.275Z,37.60
2023-07-25T12:26:24.231Z,36.40
2023-07-25T12:28:52.094Z,36.40
2023-07-25T12:31:19.286Z,36.00
2023-07-25T12:33:50.064Z,36.70
2023-07-25T12:36:18.359Z,34.60
2023-07-25T12:38:47.473Z,35.00
2023-07-25T12:41:14.677Z,33.80
2023-07-25T12:43:41.566Z,35.20
2023-07-25T12:46:12.081Z,35.60
2023-07-25T12:48:38.887Z,35.40
2023-07-25T12:51:07.131Z,34.90
2023-07-25T12:53:33.928Z,36.00
2023-07-25T12:56:00.804Z,36.70
2023-07-25T12:58:27.661Z,34.90
2023-07-25T13:00:54.825Z,34.70
2023-07-25T13:03:25.738Z,35.20
2023-07-25T13:05:53.113Z,34.80
2023-07-25T13:08:21.436Z,35.30
2023-07-25T13:10:48.475Z,32.80
2023-07-25T13:13:15.962Z,33.30
2023-07-25T13:15:43.464Z,33.60
2023-07-25T13:18:10.443Z,31.60
2023-07-25T13:20:37.577Z,32.50
2023-07-25T13:23:04.421Z,33.20
2023-07-25T13:25:32.543Z,33.20
2023-07-25T13:27:59.317Z,32.70
2023-07-25T13:30:26.082Z,34.20
2023-07-25T13:32:52.943Z,33.60
2023-07-25T13:35:19.971Z,33.60
2023-07-25T13:37:46.752Z,33.50
2023-07-25T13:40:13.677Z,33.70
2023-07-25T13:42:41.810Z,32.10
2023-07-25T13:45:11.976Z,32.80
2023-07-25T13:47:38.783Z,33.60
2023-07-25T13:50:06.255Z,32.50
2023-07-25T13:52:32.993Z,31.70
2023-07-25T13:54:59.756Z,32.00
2023-07-25T13:57:32.817Z,33.90
2023-07-25T14:00:01.785Z,33.80
2023-07-25T14:02:28.632Z,34.10
2023-07-25T14:04:55.460Z,32.40
2023-07-25T14:07:22.214Z,32.40
2023-07-25T14:09:48.958Z,33.00
2023-07-25T14:12:15.710Z,32.10
2023-07-25T14:14:42.555Z,33.60
2023-07-25T14:17:10.628Z,32.10
2023-07-25T14:19:37.441Z,33.30
2023-07-25T14:22:04.584Z,32.40
2023-07-25T14:24:31.388Z,34.00
2023-07-25T14:26:58.165Z,33.00
2023-07-25T14:29:25.485Z,31.80
2023-07-25T14:31:52.210Z,32.50
2023-07-25T14:34:20.388Z,32.80
2023-07-25T14:36:47.119Z,32.80
2023-07-25T14:39:13.856Z,32.40
2023-07-25T14:41:40.681Z,33.40
2023-07-25T14:44:07.399Z,33.20
2023-07-25T14:46:34.875Z,32.70
2023-07-25T14:49:02.039Z,32.80
2023-07-25T14:51:30.149Z,33.10
2023-07-25T14:53:56.988Z,32.80
2023-07-25T14:56:23.815Z,32.80
2023-07-25T14:58:50.593Z,32.80
2023-07-25T15:01:17.355Z,33.40
2023-07-25T15:03:44.115Z,34.10
2023-07-25T15:06:10.840Z,34.50
2023-07-25T15:08:38.927Z,34.00
2023-07-25T15:11:06.172Z,34.50
2023-07-25T15:13:33.014Z,33.70
2023-07-25T15:15:59.788Z,33.60
2023-07-25T15:18:26.586Z,34.20
2023-07-25T15:20:53.718Z,34.00
2023-07-25T15:23:20.520Z,33.40
2023-07-25T15:25:48.676Z,34.10
2023-07-25T15:28:15.406Z,35.20
2023-07-25T15:30:42.260Z,34.50
2023-07-25T15:33:09.243Z,34.20
2023-07-25T15:35:36.164Z,35.00
2023-07-25T15:38:03.017Z,35.80
2023-07-25T15:40:29.782Z,36.50
2023-07-25T15:42:57.875Z,35.80
2023-07-25T15:45:24.612Z,35.90
2023-07-25T15:47:51.511Z,36.10
2023-07-25T15:50:18.316Z,36.70
2023-07-25T15:52:45.037Z,36.70
2023-07-25T15:55:11.842Z,36.20
2023-07-25T15:57:40.059Z,37.10
2023-07-25T16:00:09.870Z,37.40
2023-07-25T16:02:36.908Z,37.20
2023-07-25T16:05:04.126Z,37.40
2023-07-25T16:07:33.714Z,37.90
2023-07-25T16:10:02.095Z,37.80
2023-07-25T16:12:28.862Z,38.20
2023-07-25T16:14:55.583Z,38.50
2023-07-25T16:17:23.733Z,38.70
2023-07-25T16:19:50.461Z,37.70
2023-07-25T16:22:17.353Z,37.40
2023-07-25T16:24:44.274Z,37.90
2023-07-25T16:27:11.028Z,38.70
2023-07-25T16:29:37.851Z,37.20
2023-07-25T16:32:05.209Z,35.90
2023-07-25T16:34:33.324Z,36.00
2023-07-25T16:37:00.157Z,35.90
2023-07-25T16:39:27.264Z,36.00
2023-07-25T16:41:54.265Z,35.60
2023-07-25T16:44:21.232Z,34.30
2023-07-25T16:46:48.065Z,34.90
2023-07-25T16:49:15.019Z,34.30
2023-07-25T16:51:43.071Z,34.60
2023-07-25T16:54:09.837Z,35.60
2023-07-25T16:56:36.624Z,35.00
2023-07-25T16:59:03.417Z,35.10
2023-07-25T17:01:31.268Z,35.10
2023-07-25T17:03:58.360Z,34.90
2023-07-25T17:06:25.251Z,34.70
2023-07-25T17:08:53.320Z,35.40
2023-07-25T17:11:20.118Z,33.90
2023-07-25T17:13:46.867Z,34.60
2023-07-25T17:16:13.744Z,35.90
2023-07-25T17:18:40.521Z,37.60
2023-07-25T17:21:07.689Z,38.30
2023-07-25T17:23:34.584Z,38.10
2023-07-25T17:26:03.069Z,38.40
2023-07-25T17:28:29.793Z,38.90
2023-07-25T17:30:57.050Z,38.50
2023-07-25T17:33:24.020Z,39.30
2023-07-25T17:35:50.827Z,39.10
2023-07-25T17:38:17.581Z,38.50
2023-07-25T17:40:44.548Z,38.60
2023-07-25T17:43:12.735Z,38.10
2023-07-25T17:45:39.474Z,38.50
2023-07-25T17:48:06.717Z,38.80
2023-07-25T17:50:33.674Z,39.30
2023-07-25T17:53:00.421Z,38.80
2023-07-25T17:55:27.247Z,39.10
2023-07-25T17:57:53.987Z,39.30
2023-07-25T18:00:22.187Z,39.00
2023-07-25T18:02:49.345Z,39.00
2023-07-25T18:05:16.355Z,39.10
2023-07-25T18:07:43.155Z,38.70
2023-07-25T18:10:10.538Z,38.30
2023-07-25T18:12:37.418Z,38.40
2023-07-25T18:15:05.222Z,38.80
2023-07-25T18:17:33.455Z,38.20
2023-07-25T18:20:00.293Z,38.10
2023-07-25T18:22:27.175Z,38.80
2023-07-25T18:24:53.961Z,38.70
2023-07-25T18:27:20.741Z,38.10
2023-07-25T18:29:47.532Z,38.30
2023-07-25T18:32:14.319Z,38.50
2023-07-25T18:34:42.684Z,38.50
2023-07-25T18:37:09.413Z,38.60
2023-07-25T18:39:36.145Z,38.80
2023-07-25T18:42:03.025Z,38.60
2023-07-25T18:44:29.829Z,38.70
2023-07-25T18:46:56.670Z,38.80
2023-07-25T18:49:23.524Z,38.80
2023-07-25T18:51:51.594Z,38.70
2023-07-25T18:54:18.324Z,38.80
2023-07-25T18:56:45.091Z,38.60
2023-07-25T18:59:11.972Z,38.70
2023-07-25T19:01:38.804Z,38.80
2023-07-25T19:04:05.533Z,38.80
2023-07-25T19:06:32.917Z,38.90
2023-07-25T19:09:01.161Z,39.00
2023-07-25T19:11:27.934Z,38.90
2023-07-25T19:13:54.776Z,38.90
2023-07-25T19:16:21.660Z,39.00
2023-07-25T19:18:48.465Z,39.00
2023-07-25T19:21:15.502Z,39.80
2023-07-25T19:23:42.260Z,39.10
2023-07-25T19:26:11.484Z,39.30
2023-07-25T19:28:38.278Z,39.30
2023-07-25T19:31:05.201Z,39.60
2023-07-25T19:33:33.431Z,39.50
2023-07-25T19:36:00.403Z,39.70
2023-07-25T19:38:28.336Z,39.40
2023-07-25T19:40:55.265Z,39.50
2023-07-25T19:43:23.494Z,40.00
2023-07-25T19:45:53.451Z,39.90
2023-07-25T19:48:20.236Z,39.90
2023-07-25T19:50:47.171Z,39.80
2023-07-25T19:53:14.717Z,39.90
2023-07-25T19:55:41.693Z,40.10
2023-07-25T19:58:08.646Z,40.20
2023-07-25T20:00:37.445Z,40.20
2023-07-25T20:03:04.421Z,40.40
2023-07-25T20:05:31.389Z,40.40
2023-07-25T20:07:58.161Z,40.60
2023-07-25T20:10:24.952Z,40.70
2023-07-25T20:12:51.821Z,40.80
2023-07-25T20:15:19.770Z,40.60
2023-07-25T20:17:48.631Z,40.60
2023-07-25T20:20:15.492Z,40.90
2023-07-25T20:22:42.640Z,40.90
2023-07-25T20:25:09.659Z,41.00
2023-07-25T20:27:36.514Z,41.00
2023-07-25T20:30:03.685Z,41.20
2023-07-25T20:32:30.579Z,40.80
2023-07-25T20:34:58.825Z,41.10
2023-07-25T20:37:25.591Z,41.10
2023-07-25T20:39:53.334Z,41.40
2023-07-25T20:42:20.170Z,41.30
2023-07-25T20:44:46.979Z,41.00
2023-07-25T20:47:13.790Z,41.50
2023-07-25T20:49:40.565Z,41.70
2023-07-25T20:52:09.022Z,41.80
2023-07-25T20:54:35.836Z,42.10
2023-07-25T20:57:02.639Z,42.10
2023-07-25T20:59:29.379Z,42.10
2023-07-25T21:01:56.198Z,42.00
2023-07-25T21:04:22.958Z,41.80
2023-07-25T21:06:49.797Z,41.70
2023-07-25T21:09:17.882Z,41.80
2023-07-25T21:11:44.610Z,42.10
2023-07-25T21:14:11.380Z,42.70
2023-07-25T21:16:38.199Z,43.00
2023-07-25T21:19:05.027Z,43.00
2023-07-25T21:21:31.952Z,43.30
2023-07-25T21:23:58.854Z,43.60
2023-07-25T21:26:26.968Z,43.50
2023-07-25T21:28:53.753Z,43.80
2023-07-25T21:31:20.604Z,43.50
2023-07-25T21:33:47.424Z,43.50
2023-07-25T21:36:14.743Z,43.90
2023-07-25T21:38:42.719Z,43.90
2023-07-25T21:41:11.398Z,43.70
2023-07-25T21:43:39.495Z,44.20
2023-07-25T21:46:06.566Z,44.20
2023-07-25T21:48:33.412Z,43.90
2023-07-25T21:51:00.874Z,44.20
2023-07-25T21:53:28.917Z,44.10
2023-07-25T21:55:55.738Z,44.30
2023-07-25T21:58:23.341Z,44.30
2023-07-25T22:00:51.456Z,44.60
2023-07-25T22:03:18.417Z,44.50
2023-07-25T22:05:45.420Z,44.30
2023-07-25T22:08:12.348Z,44.30
2023-07-25T22:10:39.118Z,44.20
2023-07-25T22:13:05.895Z,44.10
2023-07-25T22:15:32.712Z,44.30
2023-07-25T22:18:00.915Z,44.20
2023-07-25T22:20:32.053Z,44.20
2023-07-25T22:23:05.385Z,44.20
2023-07-25T22:25:32.237Z,44.10
2023-07-25T22:27:58.985Z,44.40
2023-07-25T22:30:25.707Z,44.40
2023-07-25T22:32:52.508Z,44.50
2023-07-25T22:35:20.832Z,44.60
2023-07-25T22:37:58.871Z,44.80
2023-07-25T22:40:25.616Z,45.00
2023-07-25T22:42:52.375Z,45.10
2023-07-25T22:45:19.243Z,45.00
2023-07-25T22:47:46.040Z,45.10
2023-07-25T22:50:12.806Z,45.20
2023-07-25T22:52:41.080Z,45.20
2023-07-25T22:55:08.631Z,45.50
2023-07-25T22:57:35.389Z,45.50
2023-07-25T23:00:02.703Z,45.50
2023-07-25T23:02:29.567Z,45.60
2023-07-25T23:04:56.789Z,45.80
2023-07-25T23:07:23.532Z,45.80
2023-07-25T23:09:51.643Z,46.20
2023-07-25T23:12:18.491Z,46.20
2023-07-25T23:14:45.340Z,46.30
2023-07-25T23:17:12.092Z,46.10
2023-07-25T23:19:38.841Z,45.90
2023-07-25T23:22:05.733Z,45.90
2023-07-25T23:24:32.552Z,46.00
2023-07-25T23:27:00.678Z,45.90
2023-07-25T23:29:27.442Z,45.90
2023-07-25T23:31:54.217Z,45.90
2023-07-25T23:34:20.994Z,46.00
2023-07-25T23:36:47.752Z,45.90
2023-07-25T23:39:14.516Z,45.70
2023-07-25T23:41:41.319Z,45.80
2023-07-25T23:44:09.540Z,45.90
2023-07-25T23:46:36.439Z,45.80
2023-07-25T23:49:03.312Z,45.90
2023-07-25T23:51:30.150Z,45.80
2023-07-25T23:53:56.880Z,45.70
2023-07-25T23:56:23.764Z,45.70
2023-07-25T23:58:50.596Z,45.70
